createdAt,value
2022-11-29T00:01:42.874Z,3.20
2022-11-29T00:04:31.544Z,3.10
2022-11-29T00:07:20.139Z,3.10
2022-11-29T00:10:10.296Z,3.30
2022-11-29T00:12:58.869Z,3.40
2022-11-29T00:15:48.686Z,3.30
2022-11-29T00:18:37.935Z,3.20
2022-11-29T00:21:26.480Z,3.10
2022-11-29T00:24:15.018Z,2.80
2022-11-29T00:27:03.988Z,2.80
2022-11-29T00:29:54.189Z,2.90
2022-11-29T00:32:44.025Z,3.00
2022-11-29T00:35:33.362Z,3.00
2022-11-29T00:38:21.974Z,2.90
2022-11-29T00:41:11.205Z,2.90
2022-11-29T00:43:59.685Z,3.00
2022-11-29T00:46:48.571Z,2.90
2022-11-29T00:49:38.518Z,3.10
2022-11-29T00:52:27.087Z,3.00
2022-11-29T00:55:16.037Z,3.00
2022-11-29T00:58:04.754Z,3.10
2022-11-29T01:00:54.338Z,3.10
2022-11-29T01:03:42.967Z,3.20
2022-11-29T01:06:32.865Z,3.00
2022-11-29T01:09:21.392Z,3.00
2022-11-29T01:12:09.880Z,3.20
2022-11-29T01:14:59.918Z,3.10
2022-11-29T01:17:49.270Z,3.20
2022-11-29T01:20:37.737Z,3.30
2022-11-29T01:23:28.547Z,2.90
2022-11-29T01:29:25.782Z,3.00
2022-11-29T01:32:14.613Z,3.10
2022-11-29T01:35:03.321Z,3.00
2022-11-29T01:37:51.868Z,3.00
2022-11-29T01:40:41.716Z,3.20
2022-11-29T01:43:31.178Z,3.20
2022-11-29T01:46:19.877Z,3.20
2022-11-29T01:49:13.033Z,3.20
2022-11-29T01:52:04.113Z,3.20
2022-11-29T01:54:56.731Z,3.20
2022-11-29T01:57:46.809Z,3.10
2022-11-29T02:00:35.499Z,3.20
2022-11-29T02:03:24.114Z,3.20
2022-11-29T02:06:12.911Z,3.00
2022-11-29T02:09:01.680Z,3.00
2022-11-29T02:12:10.616Z,2.90
2022-11-29T02:15:13.964Z,3.00
2022-11-29T02:18:09.534Z,3.10
2022-11-29T02:21:26.067Z,3.20
2022-11-29T02:24:55.077Z,3.00
2022-11-29T02:28:16.381Z,3.10
2022-11-29T02:31:41.562Z,2.90
2022-11-29T02:34:53.088Z,2.80
2022-11-29T02:37:53.984Z,2.90
2022-11-29T02:41:12.221Z,3.00
2022-11-29T02:44:44.781Z,3.00
2022-11-29T02:47:47.785Z,3.10
2022-11-29T02:50:43.778Z,3.00
2022-11-29T02:53:38.334Z,3.30
2022-11-29T02:56:31.555Z,3.10
2022-11-29T02:59:35.143Z,3.00
2022-11-29T03:02:29.791Z,3.00
2022-11-29T03:05:26.196Z,2.90
2022-11-29T03:08:24.441Z,3.00
2022-11-29T03:11:25.296Z,3.10
2022-11-29T03:14:20.720Z,3.30
2022-11-29T03:17:18.295Z,3.30
2022-11-29T03:20:23.964Z,3.10
2022-11-29T03:23:23.176Z,3.20
2022-11-29T03:26:15.711Z,3.30
2022-11-29T03:29:08.432Z,3.10
2022-11-29T03:32:03.053Z,3.30
2022-11-29T03:35:00.748Z,3.20
2022-11-29T03:37:56.433Z,3.20
2022-11-29T03:40:53.426Z,3.30
2022-11-29T03:43:47.082Z,3.10
2022-11-29T03:46:39.261Z,3.10
2022-11-29T03:49:34.301Z,3.40
2022-11-29T03:52:28.634Z,3.20
2022-11-29T03:55:31.395Z,3.00
2022-11-29T03:58:44.060Z,2.90
2022-11-29T04:02:10.034Z,3.00
2022-11-29T04:05:22.498Z,3.00
2022-11-29T04:08:33.501Z,3.00
2022-11-29T04:11:54.996Z,3.20
2022-11-29T04:15:31.919Z,3.00
2022-11-29T04:18:47.882Z,3.00
2022-11-29T04:22:01.466Z,3.20
2022-11-29T04:25:06.622Z,3.20
2022-11-29T04:28:13.240Z,3.10
2022-11-29T04:31:15.997Z,3.00
2022-11-29T04:34:35.679Z,3.10
2022-11-29T04:38:00.402Z,3.10
2022-11-29T04:41:20.154Z,3.20
2022-11-29T04:44:38.628Z,3.10
2022-11-29T04:47:52.220Z,3.20
2022-11-29T04:50:54.534Z,3.30
2022-11-29T04:53:58.544Z,3.00
2022-11-29T04:56:50.179Z,3.00
2022-11-29T04:59:45.188Z,2.90
2022-11-29T05:02:40.667Z,3.10
2022-11-29T05:05:36.501Z,3.10
2022-11-29T05:08:34.421Z,3.20
2022-11-29T05:11:33.197Z,3.30
2022-11-29T05:14:32.565Z,3.20
2022-11-29T05:17:38.067Z,3.00
2022-11-29T05:20:39.968Z,3.30
2022-11-29T05:23:41.031Z,3.00
2022-11-29T05:26:35.689Z,3.10
2022-11-29T05:29:35.189Z,3.20
2022-11-29T05:32:35.964Z,3.20
2022-11-29T05:35:56.516Z,3.00
2022-11-29T05:39:19.075Z,2.90
2022-11-29T05:42:24.513Z,3.00
2022-11-29T05:45:19.471Z,3.10
2022-11-29T05:48:15.287Z,3.20
2022-11-29T05:51:18.078Z,3.30
2022-11-29T05:54:15.844Z,3.10
2022-11-29T05:57:15.313Z,3.10
2022-11-29T06:00:06.585Z,3.10
2022-11-29T06:03:09.510Z,3.10
2022-11-29T06:06:01.776Z,2.80
2022-11-29T06:08:58.011Z,2.90
2022-11-29T06:11:49.776Z,2.80
2022-11-29T06:14:57.120Z,2.90
2022-11-29T06:18:03.380Z,2.90
2022-11-29T06:21:03.083Z,2.80
2022-11-29T06:24:07.070Z,2.90
2022-11-29T06:27:16.616Z,2.80
2022-11-29T06:30:09.940Z,2.80
2022-11-29T06:33:06.962Z,2.70
2022-11-29T06:36:08.546Z,2.80
2022-11-29T06:38:58.782Z,3.00
2022-11-29T06:41:48.980Z,2.90
2022-11-29T06:44:38.024Z,2.90
2022-11-29T06:47:31.757Z,2.90
2022-11-29T06:50:32.926Z,2.90
2022-11-29T06:53:29.285Z,3.10
2022-11-29T06:56:27.506Z,3.10
2022-11-29T06:59:33.850Z,3.10
2022-11-29T07:02:35.395Z,3.10
2022-11-29T07:05:26.608Z,3.00
2022-11-29T07:08:18.845Z,3.00
2022-11-29T07:11:08.021Z,3.10
2022-11-29T07:13:58.597Z,3.00
2022-11-29T07:16:57.518Z,2.90
2022-11-29T07:19:55.685Z,3.00
2022-11-29T07:23:00.976Z,3.10
2022-11-29T07:26:01.937Z,3.20
2022-11-29T07:29:14.506Z,3.10
2022-11-29T07:32:09.790Z,3.30
2022-11-29T07:35:09.510Z,3.30
2022-11-29T07:38:08.822Z,3.10
2022-11-29T07:41:03.892Z,3.20
2022-11-29T07:44:04.278Z,3.20
2022-11-29T07:46:54.157Z,3.20
2022-11-29T07:49:42.877Z,3.20
2022-11-29T07:52:31.509Z,3.30
2022-11-29T07:55:22.701Z,3.50
2022-11-29T07:58:12.900Z,3.40
2022-11-29T08:01:01.523Z,3.50
2022-11-29T08:03:51.436Z,3.50
2022-11-29T08:06:39.933Z,3.30
2022-11-29T08:09:28.533Z,3.40
2022-11-29T08:12:16.996Z,3.40
2022-11-29T08:15:06.889Z,3.40
2022-11-29T08:17:55.543Z,3.50
2022-11-29T08:20:46.479Z,3.50
2022-11-29T08:23:35.031Z,3.50
2022-11-29T08:26:28.245Z,3.60
2022-11-29T08:29:35.260Z,3.50
2022-11-29T08:32:23.847Z,3.50
2022-11-29T08:35:12.440Z,3.60
2022-11-29T08:38:03.876Z,3.50
2022-11-29T08:40:52.392Z,3.60
2022-11-29T08:43:41.164Z,3.50
2022-11-29T08:46:43.559Z,3.50
2022-11-29T08:49:32.323Z,3.60
2022-11-29T08:52:46.778Z,3.80
2022-11-29T08:55:39.958Z,3.60
2022-11-29T08:58:28.891Z,3.80
2022-11-29T09:01:20.073Z,3.80
2022-11-29T09:04:10.612Z,3.80
2022-11-29T09:06:59.133Z,3.80
2022-11-29T09:09:48.400Z,3.80
2022-11-29T09:12:39.559Z,3.60
2022-11-29T09:15:28.046Z,3.70
2022-11-29T09:18:16.641Z,3.80
2022-11-29T09:21:07.071Z,3.80
2022-11-29T09:23:59.305Z,3.90
2022-11-29T09:26:48.653Z,3.90
2022-11-29T09:29:38.812Z,4.00
2022-11-29T09:32:27.289Z,4.10
2022-11-29T09:35:15.824Z,4.00
2022-11-29T09:38:04.657Z,3.90
2022-11-29T09:40:55.564Z,3.80
2022-11-29T09:43:52.351Z,3.80
2022-11-29T09:46:53.247Z,3.90
2022-11-29T09:49:57.396Z,3.70
2022-11-29T09:52:53.140Z,3.90
2022-11-29T09:56:01.123Z,4.10
2022-11-29T09:58:55.292Z,4.20
2022-11-29T10:01:50.398Z,4.00
2022-11-29T10:04:41.758Z,4.00
2022-11-29T10:07:36.603Z,4.10
2022-11-29T10:10:30.978Z,4.00
2022-11-29T10:13:24.363Z,4.10
2022-11-29T10:16:19.333Z,3.70
2022-11-29T10:19:16.600Z,3.60
2022-11-29T10:22:08.862Z,3.60
2022-11-29T10:25:02.596Z,3.70
2022-11-29T10:27:51.120Z,3.70
2022-11-29T10:30:41.712Z,4.00
2022-11-29T10:33:34.029Z,3.70
2022-11-29T10:36:30.148Z,3.60
2022-11-29T10:39:27.317Z,3.70
2022-11-29T10:42:36.653Z,4.00
2022-11-29T10:45:29.897Z,3.80
2022-11-29T10:48:20.857Z,3.60
2022-11-29T10:51:18.157Z,3.80
2022-11-29T10:54:24.511Z,3.90
2022-11-29T10:57:16.377Z,4.00
2022-11-29T11:00:07.955Z,4.00
2022-11-29T11:02:56.743Z,3.80
2022-11-29T11:06:01.759Z,3.70
2022-11-29T11:08:54.763Z,3.80
2022-11-29T11:11:52.410Z,3.90
2022-11-29T14:58:22.201Z,3.80
2022-11-29T15:01:11.603Z,3.50
2022-11-29T15:04:07.211Z,3.40
2022-11-29T15:06:57.783Z,3.50
2022-11-29T15:09:50.692Z,3.30
2022-11-29T15:12:39.697Z,3.60
2022-11-29T15:15:54.325Z,3.30
2022-11-29T15:19:14.750Z,3.20
2022-11-29T15:22:14.152Z,3.60
2022-11-29T15:25:06.128Z,3.50
2022-11-29T15:27:56.102Z,3.80
2022-11-29T15:30:46.144Z,3.70
2022-11-29T15:33:37.409Z,3.80
2022-11-29T15:36:26.457Z,3.60
2022-11-29T15:39:27.920Z,3.60
2022-11-29T15:42:16.770Z,3.60
2022-11-29T15:45:24.054Z,3.60
2022-11-29T15:48:21.667Z,3.70
2022-11-29T15:51:19.897Z,3.80
2022-11-29T15:54:15.082Z,3.60
2022-11-29T16:21:40.928Z,3.70
2022-11-29T16:24:29.594Z,3.50
2022-11-29T16:27:21.873Z,3.50
2022-11-29T16:30:22.835Z,3.60
2022-11-29T16:33:21.374Z,3.60
2022-11-29T16:36:16.648Z,3.70
2022-11-29T16:39:16.235Z,3.80
2022-11-29T16:42:14.864Z,3.70
2022-11-29T16:45:29.153Z,3.60
2022-11-29T16:48:31.322Z,3.60
2022-11-29T16:51:25.439Z,3.60
2022-11-29T16:54:24.111Z,3.70
2022-11-29T16:57:13.944Z,3.80
2022-11-29T17:00:05.471Z,3.80
2022-11-29T17:02:54.286Z,3.90
2022-11-29T17:05:44.866Z,3.70
2022-11-29T17:08:34.670Z,3.80
2022-11-29T17:11:25.001Z,3.80
2022-11-29T17:14:13.611Z,3.70
2022-11-29T17:17:02.507Z,3.70
2022-11-29T17:19:51.255Z,3.80
2022-11-29T17:22:39.863Z,3.70
2022-11-29T17:25:28.641Z,3.60
2022-11-29T17:28:18.517Z,3.40
2022-11-29T17:31:10.842Z,3.70
2022-11-29T17:34:00.700Z,3.60
2022-11-29T17:36:49.256Z,3.60
2022-11-29T17:39:37.784Z,3.80
2022-11-29T17:42:26.499Z,3.80
2022-11-29T17:45:16.524Z,3.70
2022-11-29T17:48:05.452Z,3.70
2022-11-29T17:50:54.016Z,3.70
2022-11-29T17:53:42.581Z,3.80
2022-11-29T17:56:32.472Z,3.80
2022-11-29T17:59:21.098Z,3.70
2022-11-29T18:02:13.693Z,3.70
2022-11-29T18:05:02.685Z,3.70
2022-11-29T18:08:00.410Z,3.70
2022-11-29T18:10:48.937Z,3.80
2022-11-29T18:13:37.583Z,3.80
2022-11-29T18:16:27.743Z,3.80
2022-11-29T18:19:20.578Z,3.70
2022-11-29T18:22:09.281Z,3.70
2022-11-29T18:25:30.152Z,3.90
2022-11-29T18:28:08.505Z,3.80
2022-11-29T18:30:57.600Z,3.90
2022-11-29T18:33:47.648Z,3.90
2022-11-29T18:36:39.483Z,4.00
2022-11-29T18:39:27.976Z,3.90
2022-11-29T18:42:16.744Z,3.90
2022-11-29T18:45:05.903Z,3.80
2022-11-29T18:47:54.432Z,3.80
2022-11-29T18:50:43.046Z,3.70
2022-11-29T18:53:36.203Z,3.80
2022-11-29T18:56:26.236Z,3.60
2022-11-29T18:59:17.465Z,3.70
2022-11-29T19:02:06.317Z,3.80
2022-11-29T19:04:55.145Z,3.90
2022-11-29T19:07:44.115Z,3.80
2022-11-29T19:10:35.065Z,3.90
2022-11-29T19:13:23.650Z,3.60
2022-11-29T19:16:15.904Z,3.80
2022-11-29T19:19:05.007Z,3.90
2022-11-29T19:21:53.818Z,3.90
2022-11-29T19:24:42.568Z,4.00
2022-11-29T19:27:32.397Z,4.00
2022-11-29T19:30:20.927Z,4.00
2022-11-29T19:33:09.451Z,3.90
2022-11-29T19:35:58.203Z,3.90
2022-11-29T19:38:52.978Z,3.90
2022-11-29T19:41:44.297Z,3.90
2022-11-29T19:44:54.189Z,3.90
2022-11-29T19:47:44.051Z,3.90
2022-11-29T19:50:33.024Z,3.80
2022-11-29T19:53:21.754Z,3.90
2022-11-29T19:56:12.985Z,3.70
2022-11-29T19:59:01.542Z,3.50
2022-11-29T20:01:51.812Z,3.60
2022-11-29T20:04:40.268Z,3.70
2022-11-29T20:07:28.781Z,3.80
2022-11-29T20:10:17.606Z,3.90
2022-11-29T20:13:06.834Z,3.60
2022-11-29T20:15:55.364Z,3.60
2022-11-29T20:18:50.720Z,3.70
2022-11-29T20:21:43.711Z,3.80
2022-11-29T20:24:39.060Z,3.80
2022-11-29T20:27:29.892Z,3.50
2022-11-29T20:30:19.116Z,3.50
2022-11-29T20:33:08.025Z,3.60
2022-11-29T20:36:06.910Z,3.60
2022-11-29T20:39:01.362Z,3.70
2022-11-29T20:42:00.952Z,3.80
2022-11-29T20:44:55.478Z,3.60
2022-11-29T20:47:52.526Z,3.50
2022-11-29T20:50:44.544Z,3.70
2022-11-29T20:53:36.199Z,3.80
2022-11-29T20:56:24.971Z,3.90
2022-11-29T20:59:13.544Z,3.80
2022-11-29T21:02:02.697Z,3.70
2022-11-29T21:04:51.292Z,3.80
2022-11-29T21:07:39.885Z,3.80
2022-11-29T21:10:29.747Z,3.70
2022-11-29T21:13:20.071Z,3.80
2022-11-29T21:16:11.109Z,3.90
2022-11-29T21:19:02.614Z,3.80
2022-11-29T21:22:04.433Z,3.80
2022-11-29T21:25:01.715Z,3.70
2022-11-29T21:27:53.720Z,3.80
2022-11-29T21:30:43.565Z,3.70
2022-11-29T21:33:35.347Z,3.80
2022-11-29T21:36:23.868Z,3.90
2022-11-29T21:39:16.432Z,3.90
2022-11-29T21:42:06.140Z,3.90
2022-11-29T21:44:56.852Z,4.00
2022-11-29T21:47:45.942Z,3.90
2022-11-29T21:50:36.622Z,3.80
2022-11-29T21:53:25.221Z,3.70
2022-11-29T21:56:13.726Z,3.80
2022-11-29T21:59:02.240Z,3.90
2022-11-29T22:01:56.036Z,4.00
2022-11-29T22:04:45.257Z,4.00
2022-11-29T22:07:35.553Z,4.00
2022-11-29T22:10:24.056Z,4.00
2022-11-29T22:13:13.772Z,4.00
2022-11-29T22:16:07.362Z,4.00
2022-11-29T22:18:57.526Z,3.90
2022-11-29T22:21:47.899Z,3.90
2022-11-29T22:24:37.582Z,3.80
2022-11-29T22:27:26.196Z,3.80
2022-11-29T22:30:14.885Z,3.60
2022-11-29T22:33:05.757Z,3.70
2022-11-29T22:36:03.507Z,3.70
2022-11-29T22:38:52.872Z,3.70
2022-11-29T22:41:42.088Z,3.80
2022-11-29T22:44:31.310Z,3.70
2022-11-29T22:47:22.359Z,3.60
2022-11-29T22:50:12.226Z,3.70
2022-11-29T22:53:02.225Z,3.70
2022-11-29T22:55:50.815Z,3.60
2022-11-29T22:58:39.958Z,3.70
2022-11-29T23:01:30.571Z,3.70
2022-11-29T23:04:19.067Z,3.70
2022-11-29T23:07:07.744Z,3.70
2022-11-29T23:09:57.602Z,3.70
2022-11-29T23:12:47.530Z,3.60
2022-11-29T23:15:36.017Z,3.70
2022-11-29T23:18:24.510Z,3.50
2022-11-29T23:21:15.260Z,3.50
2022-11-29T23:24:04.188Z,3.50
2022-11-29T23:26:57.496Z,3.30
2022-11-29T23:29:45.984Z,3.50
2022-11-29T23:32:34.990Z,3.60
2022-11-29T23:35:23.455Z,3.60
2022-11-29T23:38:11.906Z,3.40
2022-11-29T23:41:00.702Z,3.60
2022-11-29T23:43:50.525Z,3.60
2022-11-29T23:46:39.255Z,3.50
2022-11-29T23:49:27.712Z,3.50
2022-11-29T23:52:16.158Z,3.50
2022-11-29T23:55:05.031Z,3.50
2022-11-29T23:57:53.970Z,3.30
